sensor_id;sensor_type;location;lat;lon;timestamp;temperature;humidity
20315;DHT22;10315;50.958;13.080;2023-07-16T00:08:30;20.60;99.90
20315;DHT22;10315;50.958;13.080;2023-07-16T00:18:33;20.70;99.90
20315;DHT22;10315;50.958;13.080;2023-07-16T00:28:35;20.60;99.90
20315;DHT22;10315;50.958;13.080;2023-07-16T00:38:38;20.50;99.90
20315;DHT22;10315;50.958;13.080;2023-07-16T00:48:41;19.80;99.90
20315;DHT22;10315;50.958;13.080;2023-07-16T00:58:45;19.00;99.90
20315;DHT22;10315;50.958;13.080;2023-07-16T01:08:49;18.70;99.90
20315;DHT22;10315;50.958;13.080;2023-07-16T01:18:58;18.40;99.90
20315;DHT22;10315;50.958;13.080;2023-07-16T01:29:26;18.20;99.90
20315;DHT22;10315;50.958;13.080;2023-07-16T01:39:29;18.10;99.90
20315;DHT22;10315;50.958;13.080;2023-07-16T01:49:34;18.00;99.90
20315;DHT22;10315;50.958;13.080;2023-07-16T01:59:36;17.80;99.90
20315;DHT22;10315;50.958;13.080;2023-07-16T02:09:39;17.90;99.90
20315;DHT22;10315;50.958;13.080;2023-07-16T02:19:41;17.70;99.90
20315;DHT22;10315;50.958;13.080;2023-07-16T02:29:46;17.70;99.90
20315;DHT22;10315;50.958;13.080;2023-07-16T02:39:48;17.70;99.90
20315;DHT22;10315;50.958;13.080;2023-07-16T02:49:52;17.80;99.90
20315;DHT22;10315;50.958;13.080;2023-07-16T02:59:53;17.80;99.90
20315;DHT22;10315;50.958;13.080;2023-07-16T03:09:56;17.90;99.90
20315;DHT22;10315;50.958;13.080;2023-07-16T03:19:58;17.80;99.90
20315;DHT22;10315;50.958;13.080;2023-07-16T03:30:02;17.80;99.90
20315;DHT22;10315;50.958;13.080;2023-07-16T03:40:13;17.90;99.90
20315;DHT22;10315;50.958;13.080;2023-07-16T03:50:16;17.90;99.90
20315;DHT22;10315;50.958;13.080;2023-07-16T04:00:18;17.90;99.90
20315;DHT22;10315;50.958;13.080;2023-07-16T04:10:21;17.90;99.90
20315;DHT22;10315;50.958;13.080;2023-07-16T04:20:23;17.90;99.90
20315;DHT22;10315;50.958;13.080;2023-07-16T04:30:26;17.90;99.90
20315;DHT22;10315;50.958;13.080;2023-07-16T04:40:29;18.00;99.90
20315;DHT22;10315;50.958;13.080;2023-07-16T04:50:32;18.10;99.90
20315;DHT22;10315;50.958;13.080;2023-07-16T05:00:34;18.20;99.90
20315;DHT22;10315;50.958;13.080;2023-07-16T05:10:37;18.30;99.90
20315;DHT22;10315;50.958;13.080;2023-07-16T05:20:39;18.50;99.90
20315;DHT22;10315;50.958;13.080;2023-07-16T05:30:42;18.60;99.90
20315;DHT22;10315;50.958;13.080;2023-07-16T05:40:43;19.00;99.90
20315;DHT22;10315;50.958;13.080;2023-07-16T05:50:46;20.00;99.90
20315;DHT22;10315;50.958;13.080;2023-07-16T06:00:48;20.80;99.90
20315;DHT22;10315;50.958;13.080;2023-07-16T06:10:51;20.80;99.90
20315;DHT22;10315;50.958;13.080;2023-07-16T06:20:53;20.10;99.90
20315;DHT22;10315;50.958;13.080;2023-07-16T06:30:57;20.20;99.90
20315;DHT22;10315;50.958;13.080;2023-07-16T06:40:58;21.50;99.90
20315;DHT22;10315;50.958;13.080;2023-07-16T06:51:01;25.30;99.90
20315;DHT22;10315;50.958;13.080;2023-07-16T07:01:03;27.80;99.90
20315;DHT22;10315;50.958;13.080;2023-07-16T07:11:06;28.50;99.90
20315;DHT22;10315;50.958;13.080;2023-07-16T07:21:08;28.60;99.90
20315;DHT22;10315;50.958;13.080;2023-07-16T07:31:11;27.60;99.90
20315;DHT22;10315;50.958;13.080;2023-07-16T07:41:12;25.80;99.90
20315;DHT22;10315;50.958;13.080;2023-07-16T07:51:15;29.50;99.90
20315;DHT22;10315;50.958;13.080;2023-07-16T08:01:17;29.50;99.90
20315;DHT22;10315;50.958;13.080;2023-07-16T08:11:20;25.80;99.90
20315;DHT22;10315;50.958;13.080;2023-07-16T08:21:22;27.40;99.90
20315;DHT22;10315;50.958;13.080;2023-07-16T08:31:25;31.90;99.90
20315;DHT22;10315;50.958;13.080;2023-07-16T08:41:26;34.80;86.60
20315;DHT22;10315;50.958;13.080;2023-07-16T08:51:30;30.10;89.40
20315;DHT22;10315;50.958;13.080;2023-07-16T09:01:32;32.50;83.40
20315;DHT22;10315;50.958;13.080;2023-07-16T09:11:35;30.70;82.60
20315;DHT22;10315;50.958;13.080;2023-07-16T09:21:37;30.20;80.60
20315;DHT22;10315;50.958;13.080;2023-07-16T09:31:52;29.30;86.60
20315;DHT22;10315;50.958;13.080;2023-07-16T09:41:55;28.30;88.10
20315;DHT22;10315;50.958;13.080;2023-07-16T09:52:01;31.40;78.90
20315;DHT22;10315;50.958;13.080;2023-07-16T10:02:04;32.50;75.50
20315;DHT22;10315;50.958;13.080;2023-07-16T10:12:18;29.20;83.80
20315;DHT22;10315;50.958;13.080;2023-07-16T10:22:31;29.40;82.90
20315;DHT22;10315;50.958;13.080;2023-07-16T10:32:34;27.80;88.90
20315;DHT22;10315;50.958;13.080;2023-07-16T10:42:36;27.10;88.20
20315;DHT22;10315;50.958;13.080;2023-07-16T10:52:39;27.20;90.60
20315;DHT22;10315;50.958;13.080;2023-07-16T11:02:41;28.70;88.20
20315;DHT22;10315;50.958;13.080;2023-07-16T11:12:50;28.70;87.50
20315;DHT22;10315;50.958;13.080;2023-07-16T11:22:53;28.30;89.70
20315;DHT22;10315;50.958;13.080;2023-07-16T11:32:58;28.10;89.10
20315;DHT22;10315;50.958;13.080;2023-07-16T11:43:08;27.90;90.10
20315;DHT22;10315;50.958;13.080;2023-07-16T11:53:11;28.30;86.20
20315;DHT22;10315;50.958;13.080;2023-07-16T12:03:12;27.50;88.00
20315;DHT22;10315;50.958;13.080;2023-07-16T12:13:15;28.00;86.40
20315;DHT22;10315;50.958;13.080;2023-07-16T12:23:17;27.70;84.60
20315;DHT22;10315;50.958;13.080;2023-07-16T12:33:20;28.70;82.40
20315;DHT22;10315;50.958;13.080;2023-07-16T12:43:22;28.80;81.40
20315;DHT22;10315;50.958;13.080;2023-07-16T12:53:25;28.40;82.40
20315;DHT22;10315;50.958;13.080;2023-07-16T13:03:27;28.00;81.80
20315;DHT22;10315;50.958;13.080;2023-07-16T13:13:30;28.10;79.60
20315;DHT22;10315;50.958;13.080;2023-07-16T13:23:31;27.80;78.80
20315;DHT22;10315;50.958;13.080;2023-07-16T13:33:34;28.10;79.20
20315;DHT22;10315;50.958;13.080;2023-07-16T13:43:36;28.20;77.80
20315;DHT22;10315;50.958;13.080;2023-07-16T13:53:39;27.70;76.40
20315;DHT22;10315;50.958;13.080;2023-07-16T14:03:41;27.20;79.60
20315;DHT22;10315;50.958;13.080;2023-07-16T14:13:44;27.70;78.90
20315;DHT22;10315;50.958;13.080;2023-07-16T14:23:48;27.60;80.20
20315;DHT22;10315;50.958;13.080;2023-07-16T14:33:51;27.00;80.00
20315;DHT22;10315;50.958;13.080;2023-07-16T14:43:53;27.50;79.30
20315;DHT22;10315;50.958;13.080;2023-07-16T14:53:56;27.40;79.40
20315;DHT22;10315;50.958;13.080;2023-07-16T15:03:58;27.00;80.60
20315;DHT22;10315;50.958;13.080;2023-07-16T15:14:01;26.70;80.70
20315;DHT22;10315;50.958;13.080;2023-07-16T15:24:03;27.40;80.90
20315;DHT22;10315;50.958;13.080;2023-07-16T15:34:06;27.20;80.00
20315;DHT22;10315;50.958;13.080;2023-07-16T15:44:07;26.80;79.80
20315;DHT22;10315;50.958;13.080;2023-07-16T15:54:10;26.70;81.10
20315;DHT22;10315;50.958;13.080;2023-07-16T16:04:12;26.60;79.50
20315;DHT22;10315;50.958;13.080;2023-07-16T16:14:15;26.50;81.60
20315;DHT22;10315;50.958;13.080;2023-07-16T16:24:17;26.20;79.40
20315;DHT22;10315;50.958;13.080;2023-07-16T16:34:20;26.40;81.10
20315;DHT22;10315;50.958;13.080;2023-07-16T16:44:22;26.10;82.20
20315;DHT22;10315;50.958;13.080;2023-07-16T16:54:25;26.00;78.40
20315;DHT22;10315;50.958;13.080;2023-07-16T17:04:26;26.00;77.90
20315;DHT22;10315;50.958;13.080;2023-07-16T17:14:30;25.80;77.80
20315;DHT22;10315;50.958;13.080;2023-07-16T17:24:32;25.70;80.80
20315;DHT22;10315;50.958;13.080;2023-07-16T17:34:35;25.50;81.10
20315;DHT22;10315;50.958;13.080;2023-07-16T17:44:40;25.20;81.30
20315;DHT22;10315;50.958;13.080;2023-07-16T17:54:43;25.10;81.70
20315;DHT22;10315;50.958;13.080;2023-07-16T18:04:45;24.80;84.90
20315;DHT22;10315;50.958;13.080;2023-07-16T18:14:48;24.90;84.20
20315;DHT22;10315;50.958;13.080;2023-07-16T18:24:50;24.50;86.20
20315;DHT22;10315;50.958;13.080;2023-07-16T18:34:53;23.90;90.40
20315;DHT22;10315;50.958;13.080;2023-07-16T18:44:55;23.30;92.30
20315;DHT22;10315;50.958;13.080;2023-07-16T18:55:00;22.70;94.40
20315;DHT22;10315;50.958;13.080;2023-07-16T19:05:03;22.50;94.10
20315;DHT22;10315;50.958;13.080;2023-07-16T19:15:07;22.10;94.60
20315;DHT22;10315;50.958;13.080;2023-07-16T19:25:09;21.50;96.50
20315;DHT22;10315;50.958;13.080;2023-07-16T19:35:19;20.80;98.70
20315;DHT22;10315;50.958;13.080;2023-07-16T19:45:21;20.40;99.90
20315;DHT22;10315;50.958;13.080;2023-07-16T19:55:24;20.10;99.90
20315;DHT22;10315;50.958;13.080;2023-07-16T20:05:26;19.70;99.90
20315;DHT22;10315;50.958;13.080;2023-07-16T20:15:29;19.50;99.90
20315;DHT22;10315;50.958;13.080;2023-07-16T20:25:31;19.30;99.90
20315;DHT22;10315;50.958;13.080;2023-07-16T20:35:34;19.20;99.90
20315;DHT22;10315;50.958;13.080;2023-07-16T20:45:36;19.00;99.90
20315;DHT22;10315;50.958;13.080;2023-07-16T20:55:46;19.30;99.90
20315;DHT22;10315;50.958;13.080;2023-07-16T21:05:48;19.20;99.90
20315;DHT22;10315;50.958;13.080;2023-07-16T21:15:51;18.70;99.90
20315;DHT22;10315;50.958;13.080;2023-07-16T21:25:52;18.20;99.90
20315;DHT22;10315;50.958;13.080;2023-07-16T21:35:55;18.20;99.90
20315;DHT22;10315;50.958;13.080;2023-07-16T21:45:57;18.10;99.90
20315;DHT22;10315;50.958;13.080;2023-07-16T21:56:00;18.40;99.90
20315;DHT22;10315;50.958;13.080;2023-07-16T22:06:02;17.90;99.90
20315;DHT22;10315;50.958;13.080;2023-07-16T22:16:06;17.40;99.90
20315;DHT22;10315;50.958;13.080;2023-07-16T22:26:08;17.50;99.90
20315;DHT22;10315;50.958;13.080;2023-07-16T22:36:11;17.50;99.90
20315;DHT22;10315;50.958;13.080;2023-07-16T22:46:13;17.20;99.90
20315;DHT22;10315;50.958;13.080;2023-07-16T22:56:17;16.80;99.90
20315;DHT22;10315;50.958;13.080;2023-07-16T23:06:18;16.90;99.90
20315;DHT22;10315;50.958;13.080;2023-07-16T23:16:21;17.50;99.90
20315;DHT22;10315;50.958;13.080;2023-07-16T23:26:23;17.70;99.90
20315;DHT22;10315;50.958;13.080;2023-07-16T23:36:26;17.80;99.90
20315;DHT22;10315;50.958;13.080;2023-07-16T23:46:28;17.70;99.90
20315;DHT22;10315;50.958;13.080;2023-07-16T23:56:31;17.10;99.90
